sensor_id;sensor_type;location;lat;lon;timestamp;temperature;humidity
79301;SHT31;68755;51.984;5.646;2024-03-08T00:01:54;6.2;65.6
79301;SHT31;68755;51.984;5.646;2024-03-08T00:04:24;6.2;65.3
79301;SHT31;68755;51.984;5.646;2024-03-08T00:06:54;6.3;64.9
79301;SHT31;68755;51.984;5.646;2024-03-08T00:09:24;6.3;64.7
79301;SHT31;68755;51.984;5.646;2024-03-08T00:11:54;6.3;64.4
79301;SHT31;68755;51.984;5.646;2024-03-08T00:14:24;6.3;64.2
79301;SHT31;68755;51.984;5.646;2024-03-08T00:16:55;6.3;64.0
79301;SHT31;68755;51.984;5.646;2024-03-08T00:19:24;6.2;64.0
79301;SHT31;68755;51.984;5.646;2024-03-08T00:21:54;6.1;64.1
79301;SHT31;68755;51.984;5.646;2024-03-08T00:24:24;6.1;64.3
79301;SHT31;68755;51.984;5.646;2024-03-08T00:26:54;6.0;64.4
79301;SHT31;68755;51.984;5.646;2024-03-08T00:29:23;5.9;64.5
79301;SHT31;68755;51.984;5.646;2024-03-08T00:31:55;5.8;64.8
79301;SHT31;68755;51.984;5.646;2024-03-08T00:34:25;5.8;64.9
79301;SHT31;68755;51.984;5.646;2024-03-08T00:36:54;5.7;64.9
79301;SHT31;68755;51.984;5.646;2024-03-08T00:39:24;5.7;65.0
79301;SHT31;68755;51.984;5.646;2024-03-08T00:41:54;5.6;65.1
79301;SHT31;68755;51.984;5.646;2024-03-08T00:44:23;5.5;65.4
79301;SHT31;68755;51.984;5.646;2024-03-08T00:46:55;5.5;65.6
79301;SHT31;68755;51.984;5.646;2024-03-08T00:49:26;5.5;65.9
79301;SHT31;68755;51.984;5.646;2024-03-08T00:51:55;5.4;65.9
79301;SHT31;68755;51.984;5.646;2024-03-08T00:54:25;5.4;65.8
79301;SHT31;68755;51.984;5.646;2024-03-08T00:56:55;5.4;65.7
79301;SHT31;68755;51.984;5.646;2024-03-08T00:59:24;5.3;65.8
79301;SHT31;68755;51.984;5.646;2024-03-08T01:01:54;5.3;65.9
79301;SHT31;68755;51.984;5.646;2024-03-08T01:04:26;5.3;65.8
79301;SHT31;68755;51.984;5.646;2024-03-08T01:06:56;5.2;65.9
79301;SHT31;68755;51.984;5.646;2024-03-08T01:09:27;5.2;66.4
79301;SHT31;68755;51.984;5.646;2024-03-08T01:11:57;5.2;66.3
79301;SHT31;68755;51.984;5.646;2024-03-08T01:14:27;5.3;66.4
79301;SHT31;68755;51.984;5.646;2024-03-08T01:16:59;5.3;66.0
79301;SHT31;68755;51.984;5.646;2024-03-08T01:19:29;5.3;65.9
79301;SHT31;68755;51.984;5.646;2024-03-08T01:22:00;5.4;65.7
79301;SHT31;68755;51.984;5.646;2024-03-08T01:24:32;5.4;65.0
79301;SHT31;68755;51.984;5.646;2024-03-08T01:27:02;5.4;64.6
79301;SHT31;68755;51.984;5.646;2024-03-08T01:29:32;5.4;64.6
79301;SHT31;68755;51.984;5.646;2024-03-08T01:32:01;5.4;64.6
79301;SHT31;68755;51.984;5.646;2024-03-08T01:34:31;5.3;64.8
79301;SHT31;68755;51.984;5.646;2024-03-08T01:37:01;5.3;64.8
79301;SHT31;68755;51.984;5.646;2024-03-08T01:39:32;5.3;64.8
79301;SHT31;68755;51.984;5.646;2024-03-08T01:42:04;5.2;64.7
79301;SHT31;68755;51.984;5.646;2024-03-08T01:44:33;5.2;64.6
79301;SHT31;68755;51.984;5.646;2024-03-08T01:47:03;5.2;64.6
79301;SHT31;68755;51.984;5.646;2024-03-08T01:49:33;5.1;64.7
79301;SHT31;68755;51.984;5.646;2024-03-08T01:52:03;5.1;64.7
79301;SHT31;68755;51.984;5.646;2024-03-08T01:54:35;5.1;64.6
79301;SHT31;68755;51.984;5.646;2024-03-08T01:57:07;5.1;64.5
79301;SHT31;68755;51.984;5.646;2024-03-08T01:59:39;5.1;64.4
79301;SHT31;68755;51.984;5.646;2024-03-08T02:02:11;5.1;64.1
79301;SHT31;68755;51.984;5.646;2024-03-08T02:04:44;5.1;63.9
79301;SHT31;68755;51.984;5.646;2024-03-08T02:07:14;5.0;63.9
79301;SHT31;68755;51.984;5.646;2024-03-08T02:09:44;5.0;64.0
79301;SHT31;68755;51.984;5.646;2024-03-08T02:12:13;5.0;64.0
79301;SHT31;68755;51.984;5.646;2024-03-08T02:14:43;5.0;63.8
79301;SHT31;68755;51.984;5.646;2024-03-08T02:17:13;5.0;63.9
79301;SHT31;68755;51.984;5.646;2024-03-08T02:19:42;4.9;63.9
79301;SHT31;68755;51.984;5.646;2024-03-08T02:22:12;4.9;63.6
79301;SHT31;68755;51.984;5.646;2024-03-08T02:24:44;4.9;63.6
79301;SHT31;68755;51.984;5.646;2024-03-08T02:27:15;4.9;63.6
79301;SHT31;68755;51.984;5.646;2024-03-08T02:29:46;4.9;63.4
79301;SHT31;68755;51.984;5.646;2024-03-08T02:32:15;4.8;63.3
79301;SHT31;68755;51.984;5.646;2024-03-08T02:34:45;4.8;63.3
79301;SHT31;68755;51.984;5.646;2024-03-08T02:37:17;4.8;63.3
79301;SHT31;68755;51.984;5.646;2024-03-08T02:39:46;4.8;63.4
79301;SHT31;68755;51.984;5.646;2024-03-08T02:42:16;4.8;63.4
79301;SHT31;68755;51.984;5.646;2024-03-08T02:44:45;4.7;63.2
79301;SHT31;68755;51.984;5.646;2024-03-08T02:47:15;4.7;63.4
79301;SHT31;68755;51.984;5.646;2024-03-08T02:49:45;4.7;63.3
79301;SHT31;68755;51.984;5.646;2024-03-08T02:52:14;4.6;63.2
79301;SHT31;68755;51.984;5.646;2024-03-08T02:54:44;4.6;63.4
79301;SHT31;68755;51.984;5.646;2024-03-08T02:57:14;4.6;63.3
79301;SHT31;68755;51.984;5.646;2024-03-08T02:59:44;4.5;63.6
79301;SHT31;68755;51.984;5.646;2024-03-08T03:02:13;4.5;63.6
79301;SHT31;68755;51.984;5.646;2024-03-08T03:04:43;4.4;63.7
79301;SHT31;68755;51.984;5.646;2024-03-08T03:07:13;4.4;63.9
79301;SHT31;68755;51.984;5.646;2024-03-08T03:09:43;4.4;64.0
79301;SHT31;68755;51.984;5.646;2024-03-08T03:12:12;4.4;63.9
79301;SHT31;68755;51.984;5.646;2024-03-08T03:14:42;4.3;64.0
79301;SHT31;68755;51.984;5.646;2024-03-08T03:17:11;4.3;64.2
79301;SHT31;68755;51.984;5.646;2024-03-08T03:19:44;4.3;64.2
79301;SHT31;68755;51.984;5.646;2024-03-08T03:22:14;4.3;64.3
79301;SHT31;68755;51.984;5.646;2024-03-08T03:24:43;4.2;64.4
79301;SHT31;68755;51.984;5.646;2024-03-08T03:27:13;4.2;64.4
79301;SHT31;68755;51.984;5.646;2024-03-08T03:29:43;4.2;64.4
79301;SHT31;68755;51.984;5.646;2024-03-08T03:32:18;4.2;64.4
79301;SHT31;68755;51.984;5.646;2024-03-08T03:34:48;4.1;64.4
79301;SHT31;68755;51.984;5.646;2024-03-08T03:37:20;4.1;64.6
79301;SHT31;68755;51.984;5.646;2024-03-08T03:39:50;4.1;64.6
79301;SHT31;68755;51.984;5.646;2024-03-08T03:42:20;4.1;64.7
79301;SHT31;68755;51.984;5.646;2024-03-08T03:44:51;4.1;64.7
79301;SHT31;68755;51.984;5.646;2024-03-08T03:47:20;4.0;64.7
79301;SHT31;68755;51.984;5.646;2024-03-08T03:49:52;4.0;64.8
79301;SHT31;68755;51.984;5.646;2024-03-08T03:52:23;4.0;65.0
79301;SHT31;68755;51.984;5.646;2024-03-08T03:54:52;4.0;65.0
79301;SHT31;68755;51.984;5.646;2024-03-08T03:57:22;4.0;65.0
79301;SHT31;68755;51.984;5.646;2024-03-08T03:59:51;3.9;65.1
79301;SHT31;68755;51.984;5.646;2024-03-08T04:02:21;3.9;65.2
79301;SHT31;68755;51.984;5.646;2024-03-08T04:04:51;3.9;65.3
79301;SHT31;68755;51.984;5.646;2024-03-08T04:07:22;3.9;65.2
79301;SHT31;68755;51.984;5.646;2024-03-08T04:09:54;3.9;65.3
79301;SHT31;68755;51.984;5.646;2024-03-08T04:12:23;3.9;65.4
79301;SHT31;68755;51.984;5.646;2024-03-08T04:14:53;3.8;65.4
79301;SHT31;68755;51.984;5.646;2024-03-08T04:17:23;3.8;65.5
79301;SHT31;68755;51.984;5.646;2024-03-08T04:19:53;3.8;65.5
79301;SHT31;68755;51.984;5.646;2024-03-08T04:22:24;3.8;65.4
79301;SHT31;68755;51.984;5.646;2024-03-08T04:24:56;3.8;65.5
79301;SHT31;68755;51.984;5.646;2024-03-08T04:27:25;3.8;65.5
79301;SHT31;68755;51.984;5.646;2024-03-08T04:29:55;3.8;65.5
79301;SHT31;68755;51.984;5.646;2024-03-08T04:32:24;3.8;65.5
79301;SHT31;68755;51.984;5.646;2024-03-08T04:34:55;3.7;65.6
79301;SHT31;68755;51.984;5.646;2024-03-08T04:37:27;3.7;65.7
79301;SHT31;68755;51.984;5.646;2024-03-08T04:39:57;3.7;65.7
79301;SHT31;68755;51.984;5.646;2024-03-08T04:42:28;3.7;65.7
79301;SHT31;68755;51.984;5.646;2024-03-08T04:45:00;3.7;65.6
79301;SHT31;68755;51.984;5.646;2024-03-08T04:47:31;3.7;65.8
79301;SHT31;68755;51.984;5.646;2024-03-08T04:50:01;3.7;65.8
79301;SHT31;68755;51.984;5.646;2024-03-08T04:52:31;3.7;65.8
79301;SHT31;68755;51.984;5.646;2024-03-08T04:55:01;3.7;65.8
79301;SHT31;68755;51.984;5.646;2024-03-08T04:57:32;3.7;65.8
79301;SHT31;68755;51.984;5.646;2024-03-08T05:00:01;3.7;65.8
79301;SHT31;68755;51.984;5.646;2024-03-08T05:02:32;3.6;65.8
79301;SHT31;68755;51.984;5.646;2024-03-08T05:05:01;3.6;65.9
79301;SHT31;68755;51.984;5.646;2024-03-08T05:07:33;3.6;65.8
79301;SHT31;68755;51.984;5.646;2024-03-08T05:10:03;3.6;65.9
79301;SHT31;68755;51.984;5.646;2024-03-08T05:12:36;3.6;65.9
79301;SHT31;68755;51.984;5.646;2024-03-08T05:15:09;3.6;65.8
79301;SHT31;68755;51.984;5.646;2024-03-08T05:17:38;3.6;65.9
79301;SHT31;68755;51.984;5.646;2024-03-08T05:20:09;3.6;66.0
79301;SHT31;68755;51.984;5.646;2024-03-08T05:22:41;3.6;66.3
79301;SHT31;68755;51.984;5.646;2024-03-08T05:25:10;3.6;65.9
79301;SHT31;68755;51.984;5.646;2024-03-08T05:27:41;3.6;65.9
79301;SHT31;68755;51.984;5.646;2024-03-08T05:30:11;3.6;66.1
79301;SHT31;68755;51.984;5.646;2024-03-08T05:32:43;3.6;66.1
79301;SHT31;68755;51.984;5.646;2024-03-08T05:35:13;3.6;66.1
79301;SHT31;68755;51.984;5.646;2024-03-08T05:37:47;3.7;66.1
79301;SHT31;68755;51.984;5.646;2024-03-08T05:40:16;3.7;65.8
79301;SHT31;68755;51.984;5.646;2024-03-08T05:42:46;3.8;65.7
79301;SHT31;68755;51.984;5.646;2024-03-08T05:45:16;3.9;65.5
79301;SHT31;68755;51.984;5.646;2024-03-08T05:47:46;3.9;65.1
79301;SHT31;68755;51.984;5.646;2024-03-08T05:50:16;4.0;64.9
79301;SHT31;68755;51.984;5.646;2024-03-08T05:52:47;4.0;64.6
79301;SHT31;68755;51.984;5.646;2024-03-08T05:55:20;4.0;64.7
79301;SHT31;68755;51.984;5.646;2024-03-08T05:57:52;4.1;64.2
79301;SHT31;68755;51.984;5.646;2024-03-08T06:00:22;4.1;64.0
79301;SHT31;68755;51.984;5.646;2024-03-08T06:02:53;4.1;63.7
79301;SHT31;68755;51.984;5.646;2024-03-08T06:05:23;4.1;63.7
79301;SHT31;68755;51.984;5.646;2024-03-08T06:07:52;4.2;63.7
79301;SHT31;68755;51.984;5.646;2024-03-08T06:10:23;4.2;63.3
79301;SHT31;68755;51.984;5.646;2024-03-08T06:12:55;4.1;63.4
79301;SHT31;68755;51.984;5.646;2024-03-08T06:15:25;4.1;63.4
79301;SHT31;68755;51.984;5.646;2024-03-08T06:17:54;4.0;63.6
79301;SHT31;68755;51.984;5.646;2024-03-08T06:20:24;4.0;63.9
79301;SHT31;68755;51.984;5.646;2024-03-08T06:22:56;3.9;64.0
79301;SHT31;68755;51.984;5.646;2024-03-08T06:25:27;3.9;64.2
79301;SHT31;68755;51.984;5.646;2024-03-08T06:27:59;3.8;64.2
79301;SHT31;68755;51.984;5.646;2024-03-08T06:30:28;3.8;64.6
79301;SHT31;68755;51.984;5.646;2024-03-08T06:32:58;3.7;64.7
79301;SHT31;68755;51.984;5.646;2024-03-08T06:35:28;3.7;64.8
79301;SHT31;68755;51.984;5.646;2024-03-08T06:37:59;3.7;65.0
79301;SHT31;68755;51.984;5.646;2024-03-08T06:40:29;3.7;65.0
79301;SHT31;68755;51.984;5.646;2024-03-08T06:42:59;3.6;65.3
79301;SHT31;68755;51.984;5.646;2024-03-08T06:45:28;3.6;65.5
79301;SHT31;68755;51.984;5.646;2024-03-08T06:47:58;3.7;65.5
79301;SHT31;68755;51.984;5.646;2024-03-08T06:50:27;3.7;65.4
79301;SHT31;68755;51.984;5.646;2024-03-08T06:52:58;3.7;65.2
79301;SHT31;68755;51.984;5.646;2024-03-08T06:55:27;3.7;65.4
79301;SHT31;68755;51.984;5.646;2024-03-08T06:57:57;3.7;65.3
79301;SHT31;68755;51.984;5.646;2024-03-08T07:00:27;3.7;65.3
79301;SHT31;68755;51.984;5.646;2024-03-08T07:02:57;3.7;65.3
79301;SHT31;68755;51.984;5.646;2024-03-08T07:05:28;3.7;65.3
79301;SHT31;68755;51.984;5.646;2024-03-08T07:08:02;3.7;65.2
79301;SHT31;68755;51.984;5.646;2024-03-08T07:10:34;3.7;65.2
79301;SHT31;68755;51.984;5.646;2024-03-08T07:13:04;3.7;65.2
79301;SHT31;68755;51.984;5.646;2024-03-08T07:15:34;3.7;65.5
79301;SHT31;68755;51.984;5.646;2024-03-08T07:18:06;3.7;65.5
79301;SHT31;68755;51.984;5.646;2024-03-08T07:20:41;3.7;65.2
79301;SHT31;68755;51.984;5.646;2024-03-08T07:23:13;3.7;65.3
79301;SHT31;68755;51.984;5.646;2024-03-08T07:25:48;3.7;65.5
79301;SHT31;68755;51.984;5.646;2024-03-08T07:28:18;3.7;65.6
79301;SHT31;68755;51.984;5.646;2024-03-08T07:30:47;3.7;65.5
79301;SHT31;68755;51.984;5.646;2024-03-08T07:33:28;3.7;65.8
79301;SHT31;68755;51.984;5.646;2024-03-08T07:35:58;3.8;65.5
79301;SHT31;68755;51.984;5.646;2024-03-08T07:38:28;3.8;65.7
79301;SHT31;68755;51.984;5.646;2024-03-08T07:40:59;3.8;65.5
79301;SHT31;68755;51.984;5.646;2024-03-08T07:43:29;3.8;65.3
79301;SHT31;68755;51.984;5.646;2024-03-08T07:46:00;3.9;65.3
79301;SHT31;68755;51.984;5.646;2024-03-08T07:48:30;3.9;65.0
79301;SHT31;68755;51.984;5.646;2024-03-08T07:51:00;4.0;65.0
79301;SHT31;68755;51.984;5.646;2024-03-08T07:53:30;4.0;64.8
79301;SHT31;68755;51.984;5.646;2024-03-08T07:56:00;4.0;65.2
79301;SHT31;68755;51.984;5.646;2024-03-08T07:58:29;4.1;64.8
79301;SHT31;68755;51.984;5.646;2024-03-08T08:00:59;4.1;64.7
79301;SHT31;68755;51.984;5.646;2024-03-08T08:03:29;4.2;64.4
79301;SHT31;68755;51.984;5.646;2024-03-08T08:05:59;4.2;64.3
79301;SHT31;68755;51.984;5.646;2024-03-08T08:08:29;4.3;64.2
79301;SHT31;68755;51.984;5.646;2024-03-08T08:10:59;4.3;63.9
79301;SHT31;68755;51.984;5.646;2024-03-08T08:13:30;4.3;64.0
79301;SHT31;68755;51.984;5.646;2024-03-08T08:16:00;4.4;64.0
79301;SHT31;68755;51.984;5.646;2024-03-08T08:18:32;4.4;63.6
79301;SHT31;68755;51.984;5.646;2024-03-08T08:21:06;4.5;63.4
79301;SHT31;68755;51.984;5.646;2024-03-08T08:23:35;4.5;63.6
79301;SHT31;68755;51.984;5.646;2024-03-08T08:26:05;4.6;63.3
79301;SHT31;68755;51.984;5.646;2024-03-08T08:28:35;4.6;63.2
79301;SHT31;68755;51.984;5.646;2024-03-08T08:31:06;4.6;63.0
79301;SHT31;68755;51.984;5.646;2024-03-08T08:33:37;4.7;63.1
79301;SHT31;68755;51.984;5.646;2024-03-08T08:36:08;4.7;63.2
79301;SHT31;68755;51.984;5.646;2024-03-08T08:38:39;4.7;63.5
79301;SHT31;68755;51.984;5.646;2024-03-08T08:41:11;4.8;63.4
79301;SHT31;68755;51.984;5.646;2024-03-08T08:43:41;4.8;62.8
79301;SHT31;68755;51.984;5.646;2024-03-08T08:46:12;4.9;63.2
79301;SHT31;68755;51.984;5.646;2024-03-08T08:48:42;4.9;62.8
79301;SHT31;68755;51.984;5.646;2024-03-08T08:51:12;4.9;62.9
79301;SHT31;68755;51.984;5.646;2024-03-08T08:53:43;5.0;62.7
79301;SHT31;68755;51.984;5.646;2024-03-08T08:56:14;5.0;62.5
79301;SHT31;68755;51.984;5.646;2024-03-08T08:58:46;5.1;62.5
79301;SHT31;68755;51.984;5.646;2024-03-08T09:01:16;5.1;62.8
79301;SHT31;68755;51.984;5.646;2024-03-08T09:03:46;5.2;62.5
79301;SHT31;68755;51.984;5.646;2024-03-08T09:06:17;5.2;62.4
79301;SHT31;68755;51.984;5.646;2024-03-08T09:08:47;5.2;62.6
79301;SHT31;68755;51.984;5.646;2024-03-08T09:11:17;5.3;62.2
79301;SHT31;68755;51.984;5.646;2024-03-08T09:13:47;5.3;62.0
79301;SHT31;68755;51.984;5.646;2024-03-08T09:16:19;5.4;62.4
79301;SHT31;68755;51.984;5.646;2024-03-08T09:18:48;5.4;62.1
79301;SHT31;68755;51.984;5.646;2024-03-08T09:21:18;5.5;61.7
79301;SHT31;68755;51.984;5.646;2024-03-08T09:23:48;5.5;62.0
79301;SHT31;68755;51.984;5.646;2024-03-08T09:26:17;5.6;61.8
79301;SHT31;68755;51.984;5.646;2024-03-08T09:28:49;5.6;61.7
79301;SHT31;68755;51.984;5.646;2024-03-08T09:31:19;5.7;61.9
79301;SHT31;68755;51.984;5.646;2024-03-08T09:33:49;5.7;62.1
79301;SHT31;68755;51.984;5.646;2024-03-08T09:36:21;5.8;61.5
79301;SHT31;68755;51.984;5.646;2024-03-08T09:38:50;5.8;61.8
79301;SHT31;68755;51.984;5.646;2024-03-08T09:41:22;5.8;61.6
79301;SHT31;68755;51.984;5.646;2024-03-08T09:43:52;5.9;61.2
79301;SHT31;68755;51.984;5.646;2024-03-08T09:46:23;5.9;61.3
79301;SHT31;68755;51.984;5.646;2024-03-08T09:48:54;6.0;61.5
79301;SHT31;68755;51.984;5.646;2024-03-08T09:51:28;6.0;61.5
79301;SHT31;68755;51.984;5.646;2024-03-08T09:53:59;6.1;61.2
79301;SHT31;68755;51.984;5.646;2024-03-08T09:56:32;6.1;61.6
79301;SHT31;68755;51.984;5.646;2024-03-08T09:59:03;6.2;61.6
79301;SHT31;68755;51.984;5.646;2024-03-08T10:01:49;6.2;62.0
79301;SHT31;68755;51.984;5.646;2024-03-08T10:04:21;6.3;61.8
79301;SHT31;68755;51.984;5.646;2024-03-08T10:06:51;6.3;61.6
79301;SHT31;68755;51.984;5.646;2024-03-08T10:09:21;6.4;61.5
79301;SHT31;68755;51.984;5.646;2024-03-08T10:11:53;6.4;61.5
79301;SHT31;68755;51.984;5.646;2024-03-08T10:14:23;6.5;60.8
79301;SHT31;68755;51.984;5.646;2024-03-08T10:16:54;6.6;59.8
79301;SHT31;68755;51.984;5.646;2024-03-08T10:19:27;6.6;59.7
79301;SHT31;68755;51.984;5.646;2024-03-08T10:21:58;6.6;60.0
79301;SHT31;68755;51.984;5.646;2024-03-08T10:24:27;6.7;60.3
79301;SHT31;68755;51.984;5.646;2024-03-08T10:27:00;6.7;60.4
79301;SHT31;68755;51.984;5.646;2024-03-08T10:29:33;6.8;59.8
79301;SHT31;68755;51.984;5.646;2024-03-08T10:32:03;6.8;60.3
79301;SHT31;68755;51.984;5.646;2024-03-08T10:34:34;6.9;59.4
79301;SHT31;68755;51.984;5.646;2024-03-08T10:37:07;6.9;59.0
79301;SHT31;68755;51.984;5.646;2024-03-08T10:39:37;7.0;59.0
79301;SHT31;68755;51.984;5.646;2024-03-08T10:42:17;7.0;59.0
79301;SHT31;68755;51.984;5.646;2024-03-08T10:44:58;7.1;59.3
79301;SHT31;68755;51.984;5.646;2024-03-08T10:47:38;7.1;59.3
79301;SHT31;68755;51.984;5.646;2024-03-08T10:50:18;7.2;58.3
79301;SHT31;68755;51.984;5.646;2024-03-08T10:52:50;7.2;58.1
79301;SHT31;68755;51.984;5.646;2024-03-08T10:55:21;7.3;58.3
79301;SHT31;68755;51.984;5.646;2024-03-08T10:57:53;7.3;58.1
79301;SHT31;68755;51.984;5.646;2024-03-08T11:00:22;7.4;57.4
79301;SHT31;68755;51.984;5.646;2024-03-08T11:02:54;7.4;57.5
79301;SHT31;68755;51.984;5.646;2024-03-08T11:05:37;7.5;57.7
79301;SHT31;68755;51.984;5.646;2024-03-08T11:08:17;7.5;57.6
79301;SHT31;68755;51.984;5.646;2024-03-08T11:10:54;7.6;57.4
79301;SHT31;68755;51.984;5.646;2024-03-08T11:13:37;7.7;56.9
79301;SHT31;68755;51.984;5.646;2024-03-08T11:16:09;7.7;56.7
79301;SHT31;68755;51.984;5.646;2024-03-08T11:18:40;7.8;56.8
79301;SHT31;68755;51.984;5.646;2024-03-08T11:21:10;7.8;56.8
79301;SHT31;68755;51.984;5.646;2024-03-08T11:23:44;7.9;55.9
79301;SHT31;68755;51.984;5.646;2024-03-08T11:26:20;7.9;56.0
79301;SHT31;68755;51.984;5.646;2024-03-08T11:28:50;8.0;56.0
79301;SHT31;68755;51.984;5.646;2024-03-08T11:31:26;8.0;56.0
79301;SHT31;68755;51.984;5.646;2024-03-08T11:33:56;8.1;55.3
79301;SHT31;68755;51.984;5.646;2024-03-08T11:36:27;8.1;55.4
79301;SHT31;68755;51.984;5.646;2024-03-08T11:38:58;8.2;54.3
79301;SHT31;68755;51.984;5.646;2024-03-08T11:41:33;8.3;54.4
79301;SHT31;68755;51.984;5.646;2024-03-08T11:44:05;8.4;54.4
79301;SHT31;68755;51.984;5.646;2024-03-08T11:46:38;8.6;54.4
79301;SHT31;68755;51.984;5.646;2024-03-08T11:49:14;8.8;54.0
79301;SHT31;68755;51.984;5.646;2024-03-08T11:51:44;9.0;52.2
79301;SHT31;68755;51.984;5.646;2024-03-08T11:54:15;9.1;51.7
79301;SHT31;68755;51.984;5.646;2024-03-08T11:56:46;9.2;51.3
79301;SHT31;68755;51.984;5.646;2024-03-08T11:59:17;9.4;51.5
79301;SHT31;68755;51.984;5.646;2024-03-08T12:02:03;9.5;51.1
79301;SHT31;68755;51.984;5.646;2024-03-08T12:04:33;9.6;50.2
79301;SHT31;68755;51.984;5.646;2024-03-08T12:07:04;9.6;50.5
79301;SHT31;68755;51.984;5.646;2024-03-08T12:09:40;9.7;49.3
79301;SHT31;68755;51.984;5.646;2024-03-08T12:12:15;9.8;49.3
79301;SHT31;68755;51.984;5.646;2024-03-08T12:14:45;9.8;48.9
79301;SHT31;68755;51.984;5.646;2024-03-08T12:17:16;9.9;49.2
79301;SHT31;68755;51.984;5.646;2024-03-08T12:19:48;9.9;50.0
79301;SHT31;68755;51.984;5.646;2024-03-08T12:22:24;9.9;49.1
79301;SHT31;68755;51.984;5.646;2024-03-08T12:25:05;9.9;48.6
79301;SHT31;68755;51.984;5.646;2024-03-08T12:27:38;9.9;48.0
79301;SHT31;68755;51.984;5.646;2024-03-08T12:30:22;10.0;48.4
79301;SHT31;68755;51.984;5.646;2024-03-08T12:32:55;10.0;48.5
79301;SHT31;68755;51.984;5.646;2024-03-08T12:35:30;10.0;48.5
79301;SHT31;68755;51.984;5.646;2024-03-08T12:38:03;10.0;48.4
79301;SHT31;68755;51.984;5.646;2024-03-08T12:40:34;10.0;48.0
79301;SHT31;68755;51.984;5.646;2024-03-08T12:43:10;10.0;48.4
79301;SHT31;68755;51.984;5.646;2024-03-08T12:45:41;10.0;48.9
79301;SHT31;68755;51.984;5.646;2024-03-08T12:48:14;10.1;48.9
79301;SHT31;68755;51.984;5.646;2024-03-08T12:50:45;10.1;48.6
79301;SHT31;68755;51.984;5.646;2024-03-08T12:53:15;10.1;48.5
79301;SHT31;68755;51.984;5.646;2024-03-08T12:55:45;10.1;48.9
79301;SHT31;68755;51.984;5.646;2024-03-08T12:58:15;10.1;48.8
79301;SHT31;68755;51.984;5.646;2024-03-08T13:00:47;10.1;48.8
79301;SHT31;68755;51.984;5.646;2024-03-08T13:03:17;10.1;49.2
79301;SHT31;68755;51.984;5.646;2024-03-08T13:05:47;10.1;49.5
79301;SHT31;68755;51.984;5.646;2024-03-08T13:08:19;10.1;49.1
79301;SHT31;68755;51.984;5.646;2024-03-08T13:10:54;10.1;49.2
79301;SHT31;68755;51.984;5.646;2024-03-08T13:13:25;10.1;49.2
79301;SHT31;68755;51.984;5.646;2024-03-08T13:15:55;10.1;49.1
79301;SHT31;68755;51.984;5.646;2024-03-08T13:18:28;10.2;48.9
79301;SHT31;68755;51.984;5.646;2024-03-08T13:20:59;10.2;48.9
79301;SHT31;68755;51.984;5.646;2024-03-08T13:23:32;10.2;48.9
79301;SHT31;68755;51.984;5.646;2024-03-08T13:26:07;10.2;48.9
79301;SHT31;68755;51.984;5.646;2024-03-08T13:28:41;10.2;48.7
79301;SHT31;68755;51.984;5.646;2024-03-08T13:31:13;10.2;48.9
79301;SHT31;68755;51.984;5.646;2024-03-08T13:33:45;10.2;48.8
79301;SHT31;68755;51.984;5.646;2024-03-08T13:36:15;10.3;49.1
79301;SHT31;68755;51.984;5.646;2024-03-08T13:38:48;10.3;49.2
79301;SHT31;68755;51.984;5.646;2024-03-08T13:41:18;10.3;49.3
79301;SHT31;68755;51.984;5.646;2024-03-08T13:43:54;10.3;49.5
79301;SHT31;68755;51.984;5.646;2024-03-08T13:46:23;10.3;49.0
79301;SHT31;68755;51.984;5.646;2024-03-08T13:48:54;10.3;48.6
79301;SHT31;68755;51.984;5.646;2024-03-08T13:51:24;10.3;49.5
79301;SHT31;68755;51.984;5.646;2024-03-08T13:53:54;10.4;49.6
79301;SHT31;68755;51.984;5.646;2024-03-08T13:56:23;10.4;49.5
79301;SHT31;68755;51.984;5.646;2024-03-08T13:58:53;10.4;49.5
79301;SHT31;68755;51.984;5.646;2024-03-08T14:01:24;10.4;49.0
79301;SHT31;68755;51.984;5.646;2024-03-08T14:03:54;10.4;49.1
79301;SHT31;68755;51.984;5.646;2024-03-08T14:06:24;10.4;48.6
79301;SHT31;68755;51.984;5.646;2024-03-08T14:08:54;10.4;48.8
79301;SHT31;68755;51.984;5.646;2024-03-08T14:11:24;10.4;48.7
79301;SHT31;68755;51.984;5.646;2024-03-08T14:13:54;10.4;48.1
79301;SHT31;68755;51.984;5.646;2024-03-08T14:16:24;10.5;48.8
79301;SHT31;68755;51.984;5.646;2024-03-08T14:18:53;10.5;48.4
79301;SHT31;68755;51.984;5.646;2024-03-08T14:21:23;10.5;48.4
79301;SHT31;68755;51.984;5.646;2024-03-08T14:23:54;10.4;48.5
79301;SHT31;68755;51.984;5.646;2024-03-08T14:26:24;10.4;48.5
79301;SHT31;68755;51.984;5.646;2024-03-08T14:28:53;10.4;48.4
79301;SHT31;68755;51.984;5.646;2024-03-08T14:31:24;10.4;48.6
79301;SHT31;68755;51.984;5.646;2024-03-08T14:33:57;10.4;49.1
79301;SHT31;68755;51.984;5.646;2024-03-08T14:36:29;10.4;49.2
79301;SHT31;68755;51.984;5.646;2024-03-08T14:38:59;10.4;48.7
79301;SHT31;68755;51.984;5.646;2024-03-08T14:41:31;10.4;48.5
79301;SHT31;68755;51.984;5.646;2024-03-08T14:44:00;10.4;48.3
79301;SHT31;68755;51.984;5.646;2024-03-08T14:46:30;10.4;48.8
79301;SHT31;68755;51.984;5.646;2024-03-08T14:49:00;10.4;48.9
79301;SHT31;68755;51.984;5.646;2024-03-08T14:51:30;10.4;49.1
79301;SHT31;68755;51.984;5.646;2024-03-08T14:54:02;10.4;49.2
79301;SHT31;68755;51.984;5.646;2024-03-08T14:56:34;10.4;49.1
79301;SHT31;68755;51.984;5.646;2024-03-08T14:59:03;10.4;49.0
79301;SHT31;68755;51.984;5.646;2024-03-08T15:01:34;10.4;49.3
79301;SHT31;68755;51.984;5.646;2024-03-08T15:04:04;10.4;49.1
79301;SHT31;68755;51.984;5.646;2024-03-08T15:06:37;10.4;49.0
79301;SHT31;68755;51.984;5.646;2024-03-08T15:09:09;10.4;48.6
79301;SHT31;68755;51.984;5.646;2024-03-08T15:11:47;10.4;48.6
79301;SHT31;68755;51.984;5.646;2024-03-08T15:14:17;10.4;48.6
79301;SHT31;68755;51.984;5.646;2024-03-08T15:16:47;10.4;48.5
79301;SHT31;68755;51.984;5.646;2024-03-08T15:19:18;10.4;48.6
79301;SHT31;68755;51.984;5.646;2024-03-08T15:21:48;10.4;48.8
79301;SHT31;68755;51.984;5.646;2024-03-08T15:24:18;10.4;48.9
79301;SHT31;68755;51.984;5.646;2024-03-08T15:26:49;10.4;49.1
79301;SHT31;68755;51.984;5.646;2024-03-08T15:29:22;10.4;49.0
79301;SHT31;68755;51.984;5.646;2024-03-08T15:31:54;10.4;49.3
79301;SHT31;68755;51.984;5.646;2024-03-08T15:34:23;10.4;49.5
79301;SHT31;68755;51.984;5.646;2024-03-08T15:36:53;10.4;49.3
79301;SHT31;68755;51.984;5.646;2024-03-08T15:39:28;10.4;49.5
79301;SHT31;68755;51.984;5.646;2024-03-08T15:42:00;10.4;49.5
79301;SHT31;68755;51.984;5.646;2024-03-08T15:44:32;10.4;49.4
79301;SHT31;68755;51.984;5.646;2024-03-08T15:47:07;10.4;49.2
79301;SHT31;68755;51.984;5.646;2024-03-08T15:49:39;10.4;49.2
79301;SHT31;68755;51.984;5.646;2024-03-08T15:52:11;10.4;49.2
79301;SHT31;68755;51.984;5.646;2024-03-08T15:54:41;10.4;49.3
79301;SHT31;68755;51.984;5.646;2024-03-08T15:57:11;10.4;49.4
79301;SHT31;68755;51.984;5.646;2024-03-08T15:59:43;10.4;49.3
79301;SHT31;68755;51.984;5.646;2024-03-08T16:02:13;10.4;49.3
79301;SHT31;68755;51.984;5.646;2024-03-08T16:04:46;10.4;49.6
79301;SHT31;68755;51.984;5.646;2024-03-08T16:07:15;10.3;49.5
79301;SHT31;68755;51.984;5.646;2024-03-08T16:09:45;10.3;48.8
79301;SHT31;68755;51.984;5.646;2024-03-08T16:12:16;10.3;48.7
79301;SHT31;68755;51.984;5.646;2024-03-08T16:14:45;10.3;49.0
79301;SHT31;68755;51.984;5.646;2024-03-08T16:17:16;10.3;49.2
79301;SHT31;68755;51.984;5.646;2024-03-08T16:19:46;10.3;49.0
79301;SHT31;68755;51.984;5.646;2024-03-08T16:22:16;10.3;48.9
79301;SHT31;68755;51.984;5.646;2024-03-08T16:24:47;10.3;48.7
79301;SHT31;68755;51.984;5.646;2024-03-08T16:27:18;10.3;48.7
79301;SHT31;68755;51.984;5.646;2024-03-08T16:29:47;10.3;48.7
79301;SHT31;68755;51.984;5.646;2024-03-08T16:32:19;10.3;48.8
79301;SHT31;68755;51.984;5.646;2024-03-08T16:34:49;10.3;48.7
79301;SHT31;68755;51.984;5.646;2024-03-08T16:37:21;10.3;48.8
79301;SHT31;68755;51.984;5.646;2024-03-08T16:39:53;10.3;48.7